sensor_id;sensor_type;location;lat;lon;timestamp;pressure;altitude;pressure_sealevel;temperature;humidity
53484;BME280;75581;50.088;19.966;2024-01-27T00:00:03;99384.95;;;6.07;72.14
53484;BME280;75581;50.088;19.966;2024-01-27T00:02:36;99388.98;;;6.08;70.62
53484;BME280;75581;50.088;19.966;2024-01-27T00:05:05;99412.49;;;6.06;70.38
53484;BME280;75581;50.088;19.966;2024-01-27T00:07:34;99412.92;;;5.99;69.87
53484;BME280;75581;50.088;19.966;2024-01-27T00:10:03;99426.75;;;5.93;69.36
53484;BME280;75581;50.088;19.966;2024-01-27T00:12:32;99431.04;;;5.86;69.18
53484;BME280;75581;50.088;19.966;2024-01-27T00:15:02;99442.02;;;5.80;69.02
53484;BME280;75581;50.088;19.966;2024-01-27T00:17:32;99448.36;;;5.73;68.65
53484;BME280;75581;50.088;19.966;2024-01-27T00:20:00;99469.20;;;5.67;68.73
53484;BME280;75581;50.088;19.966;2024-01-27T00:22:30;99481.77;;;5.62;68.84
53484;BME280;75581;50.088;19.966;2024-01-27T00:24:59;99490.20;;;5.57;68.72
53484;BME280;75581;50.088;19.966;2024-01-27T00:27:29;99494.80;;;5.51;68.31
53484;BME280;75581;50.088;19.966;2024-01-27T00:29:58;99494.84;;;5.46;67.88
53484;BME280;75581;50.088;19.966;2024-01-27T00:32:26;99517.86;;;5.42;67.82
53484;BME280;75581;50.088;19.966;2024-01-27T00:34:55;99525.20;;;5.42;67.89
53484;BME280;75581;50.088;19.966;2024-01-27T00:37:24;99521.48;;;5.43;67.41
53484;BME280;75581;50.088;19.966;2024-01-27T00:39:54;99531.11;;;5.43;67.11
53484;BME280;75581;50.088;19.966;2024-01-27T00:42:23;99529.76;;;5.43;66.84
53484;BME280;75581;50.088;19.966;2024-01-27T00:44:53;99517.35;;;5.41;66.14
53484;BME280;75581;50.088;19.966;2024-01-27T00:47:22;99531.23;;;5.40;65.07
53484;BME280;75581;50.088;19.966;2024-01-27T00:49:50;99531.80;;;5.37;65.04
53484;BME280;75581;50.088;19.966;2024-01-27T00:52:19;99535.05;;;5.36;64.69
53484;BME280;75581;50.088;19.966;2024-01-27T00:54:48;99541.84;;;5.36;64.63
53484;BME280;75581;50.088;19.966;2024-01-27T00:57:17;99548.31;;;5.35;64.91
53484;BME280;75581;50.088;19.966;2024-01-27T00:59:46;99561.27;;;5.31;65.44
53484;BME280;75581;50.088;19.966;2024-01-27T01:02:15;99570.89;;;5.29;65.82
53484;BME280;75581;50.088;19.966;2024-01-27T01:04:44;99564.50;;;5.27;66.17
53484;BME280;75581;50.088;19.966;2024-01-27T01:07:13;99572.10;;;5.23;66.30
53484;BME280;75581;50.088;19.966;2024-01-27T01:09:42;99573.05;;;5.18;66.43
53484;BME280;75581;50.088;19.966;2024-01-27T01:12:11;99559.46;;;5.09;66.61
53484;BME280;75581;50.088;19.966;2024-01-27T01:14:40;99565.95;;;5.01;66.71
53484;BME280;75581;50.088;19.966;2024-01-27T01:17:09;99571.91;;;4.97;66.83
53484;BME280;75581;50.088;19.966;2024-01-27T01:19:38;99574.36;;;4.95;66.87
53484;BME280;75581;50.088;19.966;2024-01-27T01:22:07;99576.39;;;4.92;66.96
53484;BME280;75581;50.088;19.966;2024-01-27T01:24:40;99586.95;;;4.89;67.00
53484;BME280;75581;50.088;19.966;2024-01-27T01:27:09;99587.41;;;4.88;67.05
53484;BME280;75581;50.088;19.966;2024-01-27T01:29:38;99595.30;;;4.87;67.10
53484;BME280;75581;50.088;19.966;2024-01-27T01:32:06;99600.67;;;4.85;66.93
53484;BME280;75581;50.088;19.966;2024-01-27T01:34:35;99593.82;;;4.85;66.90
53484;BME280;75581;50.088;19.966;2024-01-27T01:37:04;99600.35;;;4.84;67.01
53484;BME280;75581;50.088;19.966;2024-01-27T01:39:33;99605.95;;;4.83;66.91
53484;BME280;75581;50.088;19.966;2024-01-27T01:42:02;99611.30;;;4.81;67.06
53484;BME280;75581;50.088;19.966;2024-01-27T01:44:31;99612.26;;;4.81;67.11
53484;BME280;75581;50.088;19.966;2024-01-27T01:47:00;99616.77;;;4.82;67.06
53484;BME280;75581;50.088;19.966;2024-01-27T01:49:29;99623.99;;;4.84;67.02
53484;BME280;75581;50.088;19.966;2024-01-27T01:51:58;99621.89;;;4.87;67.15
53484;BME280;75581;50.088;19.966;2024-01-27T01:54:27;99618.98;;;4.88;67.01
53484;BME280;75581;50.088;19.966;2024-01-27T01:56:58;99627.56;;;4.88;66.90
53484;BME280;75581;50.088;19.966;2024-01-27T01:59:27;99621.15;;;4.84;66.95
53484;BME280;75581;50.088;19.966;2024-01-27T02:01:56;99625.56;;;4.84;66.66
53484;BME280;75581;50.088;19.966;2024-01-27T02:04:25;99628.46;;;4.80;66.29
53484;BME280;75581;50.088;19.966;2024-01-27T02:06:54;99640.70;;;4.78;66.11
53484;BME280;75581;50.088;19.966;2024-01-27T02:09:23;99638.69;;;4.77;66.19
53484;BME280;75581;50.088;19.966;2024-01-27T02:11:52;99638.27;;;4.77;66.40
53484;BME280;75581;50.088;19.966;2024-01-27T02:14:21;99642.48;;;4.76;66.49
53484;BME280;75581;50.088;19.966;2024-01-27T02:16:54;99638.93;;;4.70;66.54
53484;BME280;75581;50.088;19.966;2024-01-27T02:19:23;99639.41;;;4.65;66.64
53484;BME280;75581;50.088;19.966;2024-01-27T02:21:52;99636.56;;;4.59;66.57
53484;BME280;75581;50.088;19.966;2024-01-27T02:24:21;99639.23;;;4.51;66.59
53484;BME280;75581;50.088;19.966;2024-01-27T02:26:50;99636.23;;;4.45;66.61
53484;BME280;75581;50.088;19.966;2024-01-27T02:29:19;99635.28;;;4.39;66.67
53484;BME280;75581;50.088;19.966;2024-01-27T02:31:48;99643.04;;;4.32;66.80
53484;BME280;75581;50.088;19.966;2024-01-27T02:34:17;99644.37;;;4.25;66.66
53484;BME280;75581;50.088;19.966;2024-01-27T02:36:46;99646.67;;;4.24;66.38
53484;BME280;75581;50.088;19.966;2024-01-27T02:39:14;99650.13;;;4.24;66.30
53484;BME280;75581;50.088;19.966;2024-01-27T02:41:43;99651.48;;;4.24;65.94
53484;BME280;75581;50.088;19.966;2024-01-27T02:44:12;99653.65;;;4.24;65.75
53484;BME280;75581;50.088;19.966;2024-01-27T02:50:01;99657.48;;;4.23;65.83
53484;BME280;75581;50.088;19.966;2024-01-27T02:52:29;99662.50;;;4.24;65.91
53484;BME280;75581;50.088;19.966;2024-01-27T02:54:58;99663.86;;;4.25;66.13
53484;BME280;75581;50.088;19.966;2024-01-27T02:57:27;99661.42;;;4.28;66.20
53484;BME280;75581;50.088;19.966;2024-01-27T02:59:56;99661.79;;;4.28;66.34
53484;BME280;75581;50.088;19.966;2024-01-27T03:02:25;99661.03;;;4.32;66.26
53484;BME280;75581;50.088;19.966;2024-01-27T03:04:54;99665.11;;;4.32;66.22
53484;BME280;75581;50.088;19.966;2024-01-27T03:07:23;99661.45;;;4.31;66.21
53484;BME280;75581;50.088;19.966;2024-01-27T03:09:52;99670.66;;;4.30;65.95
53484;BME280;75581;50.088;19.966;2024-01-27T03:12:21;99679.37;;;4.30;65.49
53484;BME280;75581;50.088;19.966;2024-01-27T03:14:51;99672.05;;;4.33;64.20
53484;BME280;75581;50.088;19.966;2024-01-27T03:17:20;99682.92;;;4.35;63.24
53484;BME280;75581;50.088;19.966;2024-01-27T03:19:49;99679.13;;;4.38;62.27
53484;BME280;75581;50.088;19.966;2024-01-27T03:22:18;99691.95;;;4.41;62.25
53484;BME280;75581;50.088;19.966;2024-01-27T03:24:47;99696.67;;;4.43;62.37
53484;BME280;75581;50.088;19.966;2024-01-27T03:27:15;99697.73;;;4.44;62.47
53484;BME280;75581;50.088;19.966;2024-01-27T03:29:44;99699.17;;;4.44;62.65
53484;BME280;75581;50.088;19.966;2024-01-27T03:32:13;99696.95;;;4.45;62.71
53484;BME280;75581;50.088;19.966;2024-01-27T03:34:45;99702.58;;;4.47;62.64
53484;BME280;75581;50.088;19.966;2024-01-27T03:37:14;99704.59;;;4.48;62.74
53484;BME280;75581;50.088;19.966;2024-01-27T03:39:43;99703.48;;;4.50;62.67
53484;BME280;75581;50.088;19.966;2024-01-27T03:42:14;99702.48;;;4.50;62.64
53484;BME280;75581;50.088;19.966;2024-01-27T03:44:43;99708.52;;;4.50;62.51
53484;BME280;75581;50.088;19.966;2024-01-27T03:47:13;99716.09;;;4.50;62.67
53484;BME280;75581;50.088;19.966;2024-01-27T03:49:43;99715.07;;;4.49;62.67
53484;BME280;75581;50.088;19.966;2024-01-27T03:52:12;99717.21;;;4.48;62.77
53484;BME280;75581;50.088;19.966;2024-01-27T03:54:41;99711.20;;;4.46;62.71
53484;BME280;75581;50.088;19.966;2024-01-27T03:57:09;99714.73;;;4.46;62.85
53484;BME280;75581;50.088;19.966;2024-01-27T03:59:40;99715.92;;;4.47;62.80
53484;BME280;75581;50.088;19.966;2024-01-27T04:02:10;99719.14;;;4.47;62.93
53484;BME280;75581;50.088;19.966;2024-01-27T04:04:39;99723.58;;;4.47;62.79
53484;BME280;75581;50.088;19.966;2024-01-27T04:07:08;99727.27;;;4.46;62.90
53484;BME280;75581;50.088;19.966;2024-01-27T04:09:37;99729.96;;;4.44;63.06
53484;BME280;75581;50.088;19.966;2024-01-27T04:12:06;99739.88;;;4.42;63.00
53484;BME280;75581;50.088;19.966;2024-01-27T04:14:35;99746.83;;;4.41;63.04
53484;BME280;75581;50.088;19.966;2024-01-27T04:17:04;99753.45;;;4.39;63.05
53484;BME280;75581;50.088;19.966;2024-01-27T04:19:33;99753.02;;;4.40;63.03
53484;BME280;75581;50.088;19.966;2024-01-27T04:22:02;99753.60;;;4.41;63.01
53484;BME280;75581;50.088;19.966;2024-01-27T04:24:32;99745.88;;;4.41;63.03
53484;BME280;75581;50.088;19.966;2024-01-27T04:27:01;99751.67;;;4.40;63.11
53484;BME280;75581;50.088;19.966;2024-01-27T04:29:31;99753.12;;;4.39;63.12
53484;BME280;75581;50.088;19.966;2024-01-27T04:31:59;99749.98;;;4.39;62.94
53484;BME280;75581;50.088;19.966;2024-01-27T04:34:28;99756.98;;;4.38;62.93
53484;BME280;75581;50.088;19.966;2024-01-27T04:36:57;99758.30;;;4.38;62.96
53484;BME280;75581;50.088;19.966;2024-01-27T04:39:26;99765.54;;;4.37;63.12
53484;BME280;75581;50.088;19.966;2024-01-27T04:41:55;99772.20;;;4.37;63.19
53484;BME280;75581;50.088;19.966;2024-01-27T04:44:24;99774.46;;;4.36;63.07
53484;BME280;75581;50.088;19.966;2024-01-27T04:46:53;99777.50;;;4.35;63.34
53484;BME280;75581;50.088;19.966;2024-01-27T04:49:22;99776.44;;;4.37;63.69
53484;BME280;75581;50.088;19.966;2024-01-27T04:51:51;99769.40;;;4.36;64.16
53484;BME280;75581;50.088;19.966;2024-01-27T04:54:20;99768.71;;;4.35;64.48
53484;BME280;75581;50.088;19.966;2024-01-27T04:56:48;99774.26;;;4.32;64.78
53484;BME280;75581;50.088;19.966;2024-01-27T04:59:18;99776.40;;;4.28;65.04
53484;BME280;75581;50.088;19.966;2024-01-27T05:01:47;99769.02;;;4.22;65.20
53484;BME280;75581;50.088;19.966;2024-01-27T05:04:16;99775.35;;;4.18;65.38
53484;BME280;75581;50.088;19.966;2024-01-27T05:06:45;99781.92;;;4.17;65.46
53484;BME280;75581;50.088;19.966;2024-01-27T05:09:14;99782.34;;;4.17;65.64
53484;BME280;75581;50.088;19.966;2024-01-27T05:11:44;99790.52;;;4.17;65.86
53484;BME280;75581;50.088;19.966;2024-01-27T05:14:14;99797.42;;;4.14;65.98
53484;BME280;75581;50.088;19.966;2024-01-27T05:16:42;99807.05;;;4.12;66.06
53484;BME280;75581;50.088;19.966;2024-01-27T05:19:11;99809.39;;;4.09;66.20
53484;BME280;75581;50.088;19.966;2024-01-27T05:21:40;99809.91;;;4.06;66.36
53484;BME280;75581;50.088;19.966;2024-01-27T05:24:09;99810.13;;;4.03;66.37
53484;BME280;75581;50.088;19.966;2024-01-27T05:26:38;99812.39;;;4.02;66.41
53484;BME280;75581;50.088;19.966;2024-01-27T05:29:08;99813.21;;;4.02;66.49
53484;BME280;75581;50.088;19.966;2024-01-27T05:31:37;99812.95;;;4.02;66.46
53484;BME280;75581;50.088;19.966;2024-01-27T05:34:06;99809.84;;;4.01;66.40
53484;BME280;75581;50.088;19.966;2024-01-27T05:36:35;99812.73;;;4.01;66.48
53484;BME280;75581;50.088;19.966;2024-01-27T05:39:04;99819.54;;;4.01;66.41
53484;BME280;75581;50.088;19.966;2024-01-27T05:41:34;99817.90;;;4.01;66.36
53484;BME280;75581;50.088;19.966;2024-01-27T05:44:03;99820.13;;;4.02;66.25
53484;BME280;75581;50.088;19.966;2024-01-27T05:46:31;99825.36;;;4.02;66.12
53484;BME280;75581;50.088;19.966;2024-01-27T05:49:00;99818.38;;;4.03;66.00
53484;BME280;75581;50.088;19.966;2024-01-27T05:51:32;99823.81;;;4.02;66.04
53484;BME280;75581;50.088;19.966;2024-01-27T05:54:02;99824.18;;;4.02;66.09
53484;BME280;75581;50.088;19.966;2024-01-27T05:56:34;99824.48;;;4.01;66.08
53484;BME280;75581;50.088;19.966;2024-01-27T05:59:05;99821.69;;;4.01;66.17
53484;BME280;75581;50.088;19.966;2024-01-27T06:01:33;99823.53;;;4.00;65.99
53484;BME280;75581;50.088;19.966;2024-01-27T06:04:02;99828.50;;;4.02;65.88
53484;BME280;75581;50.088;19.966;2024-01-27T06:06:31;99831.00;;;4.03;65.87
53484;BME280;75581;50.088;19.966;2024-01-27T06:09:00;99825.33;;;4.04;65.90
53484;BME280;75581;50.088;19.966;2024-01-27T06:11:29;99827.38;;;4.05;65.83
53484;BME280;75581;50.088;19.966;2024-01-27T06:13:58;99825.59;;;4.05;65.69
53484;BME280;75581;50.088;19.966;2024-01-27T06:16:27;99829.04;;;4.05;65.75
53484;BME280;75581;50.088;19.966;2024-01-27T06:18:56;99831.25;;;4.04;65.64
53484;BME280;75581;50.088;19.966;2024-01-27T06:21:25;99831.85;;;4.03;65.34
53484;BME280;75581;50.088;19.966;2024-01-27T06:23:54;99836.30;;;4.03;65.36
53484;BME280;75581;50.088;19.966;2024-01-27T06:26:23;99836.46;;;4.03;65.32
53484;BME280;75581;50.088;19.966;2024-01-27T06:28:52;99844.80;;;4.03;65.15
53484;BME280;75581;50.088;19.966;2024-01-27T06:31:22;99847.69;;;4.03;65.01
53484;BME280;75581;50.088;19.966;2024-01-27T06:33:50;99846.08;;;4.03;65.02
53484;BME280;75581;50.088;19.966;2024-01-27T06:36:19;99854.04;;;4.03;64.70
53484;BME280;75581;50.088;19.966;2024-01-27T06:38:51;99850.85;;;4.01;64.85
53484;BME280;75581;50.088;19.966;2024-01-27T06:41:20;99851.13;;;4.00;64.75
53484;BME280;75581;50.088;19.966;2024-01-27T06:43:49;99853.60;;;4.02;64.70
53484;BME280;75581;50.088;19.966;2024-01-27T06:46:18;99853.96;;;4.04;64.28
53484;BME280;75581;50.088;19.966;2024-01-27T06:48:47;99854.88;;;4.07;64.14
53484;BME280;75581;50.088;19.966;2024-01-27T06:51:16;99858.27;;;4.10;63.88
53484;BME280;75581;50.088;19.966;2024-01-27T06:53:45;99855.48;;;4.11;63.72
53484;BME280;75581;50.088;19.966;2024-01-27T06:56:14;99861.69;;;4.12;63.61
53484;BME280;75581;50.088;19.966;2024-01-27T06:58:43;99864.23;;;4.13;63.44
53484;BME280;75581;50.088;19.966;2024-01-27T07:01:12;99869.87;;;4.13;63.31
53484;BME280;75581;50.088;19.966;2024-01-27T07:03:41;99872.57;;;4.13;63.22
53484;BME280;75581;50.088;19.966;2024-01-27T07:06:10;99880.13;;;4.13;63.30
53484;BME280;75581;50.088;19.966;2024-01-27T07:08:39;99882.52;;;4.12;63.18
53484;BME280;75581;50.088;19.966;2024-01-27T07:11:08;99884.31;;;4.11;63.38
53484;BME280;75581;50.088;19.966;2024-01-27T07:13:37;99883.30;;;4.10;63.64
53484;BME280;75581;50.088;19.966;2024-01-27T07:16:06;99881.16;;;4.12;63.73
53484;BME280;75581;50.088;19.966;2024-01-27T07:18:34;99884.17;;;4.13;63.85
53484;BME280;75581;50.088;19.966;2024-01-27T07:21:04;99885.96;;;4.13;63.96
53484;BME280;75581;50.088;19.966;2024-01-27T07:23:36;99884.03;;;4.13;63.92
53484;BME280;75581;50.088;19.966;2024-01-27T07:26:08;99882.27;;;4.13;63.88
53484;BME280;75581;50.088;19.966;2024-01-27T07:28:38;99881.73;;;4.11;63.80
53484;BME280;75581;50.088;19.966;2024-01-27T07:31:07;99883.83;;;4.10;64.01
53484;BME280;75581;50.088;19.966;2024-01-27T07:33:36;99881.36;;;4.10;64.10
53484;BME280;75581;50.088;19.966;2024-01-27T07:36:07;99877.06;;;4.09;64.00
53484;BME280;75581;50.088;19.966;2024-01-27T07:38:36;99873.36;;;4.08;63.99
53484;BME280;75581;50.088;19.966;2024-01-27T07:41:04;99873.84;;;4.10;63.76
53484;BME280;75581;50.088;19.966;2024-01-27T07:43:33;99873.52;;;4.13;63.60
53484;BME280;75581;50.088;19.966;2024-01-27T07:46:02;99871.80;;;4.14;63.44
53484;BME280;75581;50.088;19.966;2024-01-27T07:48:32;99873.52;;;4.14;63.18
53484;BME280;75581;50.088;19.966;2024-01-27T07:51:01;99877.27;;;4.14;63.01
53484;BME280;75581;50.088;19.966;2024-01-27T07:53:30;99871.88;;;4.14;63.04
53484;BME280;75581;50.088;19.966;2024-01-27T07:55:59;99864.66;;;4.15;62.62
53484;BME280;75581;50.088;19.966;2024-01-27T07:58:28;99868.67;;;4.16;62.47
53484;BME280;75581;50.088;19.966;2024-01-27T08:00:57;99861.42;;;4.16;62.31
53484;BME280;75581;50.088;19.966;2024-01-27T08:03:26;99867.16;;;4.19;62.27
53484;BME280;75581;50.088;19.966;2024-01-27T08:05:55;99871.38;;;4.22;62.18
53484;BME280;75581;50.088;19.966;2024-01-27T08:08:24;99879.30;;;4.24;61.58
53484;BME280;75581;50.088;19.966;2024-01-27T08:10:53;99882.35;;;4.25;61.59
53484;BME280;75581;50.088;19.966;2024-01-27T08:13:22;99878.09;;;4.28;61.54
53484;BME280;75581;50.088;19.966;2024-01-27T08:15:51;99870.81;;;4.32;61.29
53484;BME280;75581;50.088;19.966;2024-01-27T08:18:19;99872.31;;;4.35;61.05
53484;BME280;75581;50.088;19.966;2024-01-27T08:20:48;99873.84;;;4.38;61.12
53484;BME280;75581;50.088;19.966;2024-01-27T08:23:17;99871.78;;;4.39;60.66
53484;BME280;75581;50.088;19.966;2024-01-27T08:25:46;99861.91;;;4.41;60.42
53484;BME280;75581;50.088;19.966;2024-01-27T08:28:18;99882.91;;;4.39;60.37
53484;BME280;75581;50.088;19.966;2024-01-27T08:30:47;99880.01;;;4.38;60.51
53484;BME280;75581;50.088;19.966;2024-01-27T08:33:16;99876.76;;;4.38;60.45
53484;BME280;75581;50.088;19.966;2024-01-27T08:35:48;99880.05;;;4.38;60.21
53484;BME280;75581;50.088;19.966;2024-01-27T08:38:17;99878.07;;;4.40;60.29
53484;BME280;75581;50.088;19.966;2024-01-27T08:40:46;99878.08;;;4.42;60.35
53484;BME280;75581;50.088;19.966;2024-01-27T08:43:15;99875.80;;;4.45;60.10
53484;BME280;75581;50.088;19.966;2024-01-27T08:45:44;99880.24;;;4.43;60.19
53484;BME280;75581;50.088;19.966;2024-01-27T08:48:13;99882.84;;;4.43;59.79
53484;BME280;75581;50.088;19.966;2024-01-27T08:50:43;99890.16;;;4.40;60.11
53484;BME280;75581;50.088;19.966;2024-01-27T08:53:12;99892.83;;;4.39;59.92
53484;BME280;75581;50.088;19.966;2024-01-27T08:55:41;99899.37;;;4.38;60.00
53484;BME280;75581;50.088;19.966;2024-01-27T08:58:10;99893.27;;;4.37;59.76
53484;BME280;75581;50.088;19.966;2024-01-27T09:00:39;99896.73;;;4.35;59.81
53484;BME280;75581;50.088;19.966;2024-01-27T09:03:08;99902.41;;;4.32;60.07
53484;BME280;75581;50.088;19.966;2024-01-27T09:05:37;99904.55;;;4.30;60.22
53484;BME280;75581;50.088;19.966;2024-01-27T09:08:06;99903.12;;;4.29;60.44
53484;BME280;75581;50.088;19.966;2024-01-27T09:10:36;99909.52;;;4.27;60.67
53484;BME280;75581;50.088;19.966;2024-01-27T09:13:05;99922.17;;;4.24;60.92
53484;BME280;75581;50.088;19.966;2024-01-27T09:15:34;99919.54;;;4.21;61.31
53484;BME280;75581;50.088;19.966;2024-01-27T09:18:03;99920.65;;;4.17;61.61
53484;BME280;75581;50.088;19.966;2024-01-27T09:20:32;99926.15;;;4.12;61.96
53484;BME280;75581;50.088;19.966;2024-01-27T09:23:01;99929.11;;;4.07;62.22
53484;BME280;75581;50.088;19.966;2024-01-27T09:25:30;99928.95;;;4.04;62.65
53484;BME280;75581;50.088;19.966;2024-01-27T09:27:59;99932.71;;;4.00;63.17
53484;BME280;75581;50.088;19.966;2024-01-27T09:30:31;99941.81;;;3.95;63.56
53484;BME280;75581;50.088;19.966;2024-01-27T09:33:04;99937.11;;;3.89;63.97
53484;BME280;75581;50.088;19.966;2024-01-27T09:35:33;99941.45;;;3.82;64.56
53484;BME280;75581;50.088;19.966;2024-01-27T09:38:02;99950.08;;;3.77;64.86
53484;BME280;75581;50.088;19.966;2024-01-27T09:40:30;99954.54;;;3.73;65.04
53484;BME280;75581;50.088;19.966;2024-01-27T09:42:59;99959.79;;;3.71;65.33
53484;BME280;75581;50.088;19.966;2024-01-27T09:45:29;99957.85;;;3.69;65.79
53484;BME280;75581;50.088;19.966;2024-01-27T09:47:59;99952.27;;;3.68;66.08
53484;BME280;75581;50.088;19.966;2024-01-27T09:50:29;99957.08;;;3.67;66.37
53484;BME280;75581;50.088;19.966;2024-01-27T09:52:58;99946.34;;;3.68;66.76
53484;BME280;75581;50.088;19.966;2024-01-27T09:55:27;99952.14;;;3.65;66.88
53484;BME280;75581;50.088;19.966;2024-01-27T09:57:56;99950.53;;;3.63;67.01
53484;BME280;75581;50.088;19.966;2024-01-27T10:00:24;99950.97;;;3.61;67.15
53484;BME280;75581;50.088;19.966;2024-01-27T10:02:54;99948.05;;;3.59;67.42
53484;BME280;75581;50.088;19.966;2024-01-27T10:05:25;99955.04;;;3.53;67.56
53484;BME280;75581;50.088;19.966;2024-01-27T10:07:56;99955.67;;;3.48;67.89
53484;BME280;75581;50.088;19.966;2024-01-27T10:10:25;99954.93;;;3.44;68.16
53484;BME280;75581;50.088;19.966;2024-01-27T10:12:56;99959.09;;;3.40;68.35
53484;BME280;75581;50.088;19.966;2024-01-27T10:15:28;99954.60;;;3.35;68.49
53484;BME280;75581;50.088;19.966;2024-01-27T10:18:07;99952.59;;;3.32;68.86
53484;BME280;75581;50.088;19.966;2024-01-27T10:20:37;99959.80;;;3.34;69.10
53484;BME280;75581;50.088;19.966;2024-01-27T10:23:10;99955.45;;;3.33;69.05
53484;BME280;75581;50.088;19.966;2024-01-27T10:25:40;99958.55;;;3.30;69.15
53484;BME280;75581;50.088;19.966;2024-01-27T10:28:09;99957.38;;;3.24;69.31
53484;BME280;75581;50.088;19.966;2024-01-27T10:30:38;99951.55;;;3.16;69.60
53484;BME280;75581;50.088;19.966;2024-01-27T10:33:08;99951.53;;;3.11;69.71
53484;BME280;75581;50.088;19.966;2024-01-27T10:35:43;99953.27;;;3.07;69.91
53484;BME280;75581;50.088;19.966;2024-01-27T10:38:13;99950.02;;;3.05;70.09
53484;BME280;75581;50.088;19.966;2024-01-27T10:40:44;99952.27;;;3.05;70.36
53484;BME280;75581;50.088;19.966;2024-01-27T10:43:15;99959.76;;;3.08;70.45
53484;BME280;75581;50.088;19.966;2024-01-27T10:45:46;99954.38;;;3.08;70.38
53484;BME280;75581;50.088;19.966;2024-01-27T10:48:15;99952.08;;;3.08;70.50
53484;BME280;75581;50.088;19.966;2024-01-27T10:50:45;99951.31;;;3.10;70.65
53484;BME280;75581;50.088;19.966;2024-01-27T10:53:22;99960.14;;;3.09;70.64
53484;BME280;75581;50.088;19.966;2024-01-27T10:55:59;99957.38;;;3.09;70.70
53484;BME280;75581;50.088;19.966;2024-01-27T10:58:30;99953.14;;;3.14;70.80
53484;BME280;75581;50.088;19.966;2024-01-27T11:01:00;99955.88;;;3.17;70.75
53484;BME280;75581;50.088;19.966;2024-01-27T11:03:31;99955.27;;;3.19;70.69
53484;BME280;75581;50.088;19.966;2024-01-27T11:06:00;99960.52;;;3.21;70.80
53484;BME280;75581;50.088;19.966;2024-01-27T11:08:30;99949.24;;;3.22;70.82
53484;BME280;75581;50.088;19.966;2024-01-27T11:11:00;99957.16;;;3.21;70.74
53484;BME280;75581;50.088;19.966;2024-01-27T11:13:33;99951.50;;;3.21;70.83
53484;BME280;75581;50.088;19.966;2024-01-27T11:16:02;99953.31;;;3.23;70.85
53484;BME280;75581;50.088;19.966;2024-01-27T11:18:31;99950.66;;;3.25;70.92
53484;BME280;75581;50.088;19.966;2024-01-27T11:21:01;99955.42;;;3.25;70.82
53484;BME280;75581;50.088;19.966;2024-01-27T11:23:34;99959.85;;;3.25;70.81
53484;BME280;75581;50.088;19.966;2024-01-27T11:26:09;99965.35;;;3.27;70.91
53484;BME280;75581;50.088;19.966;2024-01-27T11:28:37;99969.22;;;3.28;70.90
53484;BME280;75581;50.088;19.966;2024-01-27T11:31:07;99966.39;;;3.29;71.00
53484;BME280;75581;50.088;19.966;2024-01-27T11:33:43;99967.48;;;3.31;71.12
53484;BME280;75581;50.088;19.966;2024-01-27T11:36:23;99973.83;;;3.32;71.08
53484;BME280;75581;50.088;19.966;2024-01-27T11:38:55;99970.63;;;3.34;71.14
53484;BME280;75581;50.088;19.966;2024-01-27T11:41:29;99969.81;;;3.34;71.01
53484;BME280;75581;50.088;19.966;2024-01-27T11:43:59;99970.81;;;3.36;71.11
53484;BME280;75581;50.088;19.966;2024-01-27T11:46:28;99971.19;;;3.37;71.29
53484;BME280;75581;50.088;19.966;2024-01-27T11:48:57;99966.71;;;3.37;71.32
53484;BME280;75581;50.088;19.966;2024-01-27T11:51:26;99976.27;;;3.36;71.31
53484;BME280;75581;50.088;19.966;2024-01-27T11:53:55;99974.20;;;3.34;71.35
53484;BME280;75581;50.088;19.966;2024-01-27T11:56:24;99980.39;;;3.32;71.45
53484;BME280;75581;50.088;19.966;2024-01-27T11:58:54;99981.13;;;3.31;71.53
53484;BME280;75581;50.088;19.966;2024-01-27T12:01:23;99980.96;;;3.31;71.62
53484;BME280;75581;50.088;19.966;2024-01-27T12:03:52;99986.42;;;3.30;71.64
53484;BME280;75581;50.088;19.966;2024-01-27T12:06:22;99989.27;;;3.27;71.72
53484;BME280;75581;50.088;19.966;2024-01-27T12:08:54;99995.46;;;3.25;71.91
53484;BME280;75581;50.088;19.966;2024-01-27T12:11:24;99995.14;;;3.25;72.05
53484;BME280;75581;50.088;19.966;2024-01-27T12:13:54;100001.12;;;3.26;72.17
53484;BME280;75581;50.088;19.966;2024-01-27T12:16:23;100001.52;;;3.30;72.29
53484;BME280;75581;50.088;19.966;2024-01-27T12:18:53;99999.11;;;3.33;72.26
53484;BME280;75581;50.088;19.966;2024-01-27T12:21:24;100005.34;;;3.37;72.24
53484;BME280;75581;50.088;19.966;2024-01-27T12:23:55;100001.35;;;3.37;72.29
53484;BME280;75581;50.088;19.966;2024-01-27T12:26:29;100004.01;;;3.36;72.26
53484;BME280;75581;50.088;19.966;2024-01-27T12:29:00;100003.88;;;3.34;72.23
53484;BME280;75581;50.088;19.966;2024-01-27T12:31:28;100008.11;;;3.34;72.32
53484;BME280;75581;50.088;19.966;2024-01-27T12:33:59;100012.20;;;3.37;72.51
53484;BME280;75581;50.088;19.966;2024-01-27T12:36:28;100017.48;;;3.40;72.45
53484;BME280;75581;50.088;19.966;2024-01-27T12:38:58;100017.10;;;3.42;72.50
53484;BME280;75581;50.088;19.966;2024-01-27T12:41:28;100022.19;;;3.42;72.38
53484;BME280;75581;50.088;19.966;2024-01-27T12:44:02;100022.45;;;3.40;72.42
53484;BME280;75581;50.088;19.966;2024-01-27T12:46:32;100022.98;;;3.39;72.56
53484;BME280;75581;50.088;19.966;2024-01-27T12:49:01;100029.96;;;3.37;72.43
53484;BME280;75581;50.088;19.966;2024-01-27T12:51:30;100030.73;;;3.38;72.52
53484;BME280;75581;50.088;19.966;2024-01-27T12:53:59;100037.85;;;3.40;72.57
53484;BME280;75581;50.088;19.966;2024-01-27T12:56:28;100039.71;;;3.43;72.49
53484;BME280;75581;50.088;19.966;2024-01-27T12:58:56;100046.81;;;3.43;72.48
53484;BME280;75581;50.088;19.966;2024-01-27T13:01:25;100047.08;;;3.41;72.40
53484;BME280;75581;50.088;19.966;2024-01-27T13:03:54;100048.30;;;3.38;72.45
53484;BME280;75581;50.088;19.966;2024-01-27T13:06:23;100049.84;;;3.35;72.47
53484;BME280;75581;50.088;19.966;2024-01-27T13:08:52;100054.05;;;3.32;72.61
53484;BME280;75581;50.088;19.966;2024-01-27T13:11:21;100055.48;;;3.31;72.58
53484;BME280;75581;50.088;19.966;2024-01-27T13:13:50;100058.61;;;3.31;72.80